Time;durP1;ratioP1;P1;durP2;ratioP2;P2;SDS_P1;SDS_P2;PMS_P1;PMS_P2;Temp;Humidity;BMP_temperature;BMP_pressure;BME280_temperature;BME280_humidity;BME280_pressure;Samples;Min_cycle;Max_cycle;Signal;HPM_P1;HPM_P2
2022/08/05 00:00:24;;;;;;;3.42;1.65;;;23.30;80.00;;;;;;4958365;28;20323;-82
2022/08/05 00:02:49;;;;;;;2.85;1.67;;;23.30;80.10;;;;;;4976165;28;20023;-82
2022/08/05 00:05:15;;;;;;;3.17;1.70;;;23.20;80.20;;;;;;4948384;28;20081;-82
2022/08/05 00:07:41;;;;;;;3.27;1.90;;;23.20;80.20;;;;;;4936324;28;20027;-82
2022/08/05 00:10:07;;;;;;;3.20;1.45;;;23.20;80.20;;;;;;4952883;28;20019;-82
2022/08/05 00:12:32;;;;;;;2.72;1.90;;;23.20;80.30;;;;;;4938075;28;20476;-82
2022/08/05 00:14:58;;;;;;;2.67;1.67;;;23.20;80.40;;;;;;4943366;28;20109;-81
2022/08/05 00:17:24;;;;;;;4.23;1.70;;;23.20;80.60;;;;;;4950734;28;20129;-81
2022/08/05 00:19:49;;;;;;;3.28;1.65;;;23.10;80.70;;;;;;4955131;28;20078;-82
2022/08/05 00:22:15;;;;;;;3.13;1.70;;;23.20;80.80;;;;;;4974214;28;20410;-82
2022/08/05 00:24:41;;;;;;;3.75;1.80;;;23.10;80.80;;;;;;4954437;28;20030;-81
2022/08/05 00:27:06;;;;;;;2.47;1.70;;;23.10;81.00;;;;;;4936522;28;20125;-82
2022/08/05 00:29:32;;;;;;;2.60;1.80;;;23.10;81.10;;;;;;4953496;28;20414;-81
2022/08/05 00:31:58;;;;;;;3.33;1.80;;;23.10;81.20;;;;;;4939645;28;20029;-81
2022/08/05 00:34:23;;;;;;;3.40;1.70;;;23.10;81.20;;;;;;4952035;28;20042;-81
2022/08/05 00:36:49;;;;;;;3.27;1.70;;;23.10;81.30;;;;;;4930390;28;20137;-81
2022/08/05 00:39:15;;;;;;;2.47;1.70;;;23.10;81.20;;;;;;4943982;28;20019;-81
2022/08/05 00:41:45;;;;;;;3.20;1.63;;;23.10;81.20;;;;;;4950941;28;20229;-82
2022/08/05 00:44:11;;;;;;;1.65;1.50;;;23.10;81.00;;;;;;4937269;28;20030;-82
2022/08/05 00:46:37;;;;;;;2.53;1.60;;;23.10;81.20;;;;;;4954848;28;20019;-82
2022/08/05 00:49:03;;;;;;;2.72;1.80;;;23.10;81.30;;;;;;4936902;28;20034;-82
2022/08/05 00:51:29;;;;;;;2.33;1.55;;;23.10;81.50;;;;;;4951791;28;20023;-82
2022/08/05 00:53:55;;;;;;;3.33;1.70;;;23.00;81.50;;;;;;4960314;28;20031;-82
2022/08/05 00:56:21;;;;;;;3.63;1.63;;;23.00;81.40;;;;;;4946786;28;20041;-82
2022/08/05 00:58:47;;;;;;;3.65;1.80;;;23.00;81.60;;;;;;4915521;28;20907;-82
2022/08/05 01:01:16;;;;;;;2.28;1.63;;;23.00;82.40;;;;;;4950738;28;20045;-78
2022/08/05 01:03:42;;;;;;;2.38;1.70;;;22.90;81.70;;;;;;4933296;28;20258;-79
2022/08/05 01:06:09;;;;;;;3.00;1.70;;;22.90;81.90;;;;;;4950329;28;20023;-78
2022/08/05 01:08:35;;;;;;;1.90;1.50;;;22.90;81.90;;;;;;4946885;28;20615;-79
2022/08/05 01:11:09;;;;;;;2.83;1.80;;;22.80;82.00;;;;;;4961863;28;20094;-79
2022/08/05 01:14:03;;;;;;;2.20;1.70;;;22.80;81.80;;;;;;4942731;28;20038;-79
2022/08/05 01:16:47;;;;;;;3.20;1.80;;;22.80;81.50;;;;;;4948125;28;20409;-79
2022/08/05 01:19:39;;;;;;;3.43;1.60;;;22.80;82.00;;;;;;4936085;28;20097;-79
2022/08/05 01:22:18;;;;;;;2.33;1.80;;;22.70;81.80;;;;;;4930486;28;20043;-79
2022/08/05 01:25:06;;;;;;;2.35;1.67;;;22.70;81.60;;;;;;4940768;28;20141;-80
2022/08/05 01:28:09;;;;;;;3.45;1.70;;;22.60;81.80;;;;;;4935160;28;20327;-79
2022/08/05 01:30:38;;;;;;;2.08;1.52;;;22.50;81.30;;;;;;4921068;28;20522;-78
2022/08/05 01:33:07;;;;;;;2.63;1.67;;;22.50;82.10;;;;;;4955063;28;20231;-79
2022/08/05 01:35:34;;;;;;;2.60;1.60;;;22.50;82.20;;;;;;4943162;28;20054;-79
2022/08/05 01:38:03;;;;;;;3.72;1.60;;;22.40;82.20;;;;;;4938842;28;20057;-79
2022/08/05 01:40:31;;;;;;;3.60;2.08;;;22.40;82.20;;;;;;4939234;28;20023;-79
2022/08/05 01:42:59;;;;;;;3.58;2.13;;;22.30;82.20;;;;;;4952551;28;20107;-79
2022/08/05 01:45:28;;;;;;;3.40;1.90;;;22.30;82.40;;;;;;4943576;28;20043;-79
2022/08/05 01:47:56;;;;;;;4.80;2.10;;;22.30;82.60;;;;;;4953581;28;20041;-79
2022/08/05 01:50:34;;;;;;;4.13;1.85;;;22.30;82.60;;;;;;4957844;28;20031;-79
2022/08/05 01:53:05;;;;;;;4.38;2.17;;;22.20;82.50;;;;;;4950619;28;20070;-78
2022/08/05 01:55:32;;;;;;;3.85;2.17;;;22.20;82.70;;;;;;4973097;28;20030;-79
2022/08/05 01:58:00;;;;;;;3.63;1.90;;;22.30;83.00;;;;;;4954387;28;20033;-79
2022/08/05 02:00:27;;;;;;;3.92;1.80;;;22.30;83.20;;;;;;4960467;28;20241;-79
2022/08/05 02:03:02;;;;;;;3.95;2.10;;;22.30;83.30;;;;;;4945733;28;20035;-79
2022/08/05 02:05:33;;;;;;;5.38;2.20;;;22.30;82.70;;;;;;4950846;28;20019;-79
2022/08/05 02:07:59;;;;;;;4.78;1.88;;;22.20;83.10;;;;;;4952100;28;20043;-79
2022/08/05 02:10:28;;;;;;;4.13;2.10;;;22.30;83.40;;;;;;4960153;28;20053;-79
2022/08/05 02:13:06;;;;;;;4.13;2.03;;;22.20;83.20;;;;;;4977177;28;20054;-79
2022/08/05 02:15:43;;;;;;;4.63;2.10;;;22.20;82.80;;;;;;4954492;28;20035;-79
2022/08/05 02:18:26;;;;;;;4.10;2.13;;;22.30;83.10;;;;;;4950868;28;20069;-79
2022/08/05 02:21:13;;;;;;;4.00;2.17;;;22.30;83.50;;;;;;4952604;28;20759;-79
2022/08/05 02:23:41;;;;;;;4.83;2.40;;;22.20;82.60;;;;;;4957731;28;20028;-79
2022/08/05 02:26:09;;;;;;;3.25;1.90;;;22.30;83.50;;;;;;4959889;28;20090;-79
2022/08/05 02:28:41;;;;;;;4.45;2.17;;;22.20;83.60;;;;;;4947141;28;20085;-79
2022/08/05 02:31:10;;;;;;;3.88;2.10;;;22.30;83.80;;;;;;4935039;28;20041;-79
2022/08/05 02:33:40;;;;;;;4.53;2.15;;;22.30;84.00;;;;;;4920492;28;20136;-79
2022/08/05 02:36:12;;;;;;;3.80;2.10;;;22.30;84.00;;;;;;4948671;28;20027;-79
2022/08/05 02:38:40;;;;;;;5.60;2.20;;;22.30;83.90;;;;;;4939306;28;20034;-79
2022/08/05 02:41:08;;;;;;;4.20;2.17;;;22.30;84.20;;;;;;4953618;28;20035;-79
2022/08/05 02:43:36;;;;;;;4.80;2.30;;;22.30;84.10;;;;;;4963351;28;20110;-79
2022/08/05 02:46:03;;;;;;;6.05;2.40;;;22.30;84.00;;;;;;4938513;28;20027;-79
2022/08/05 02:48:29;;;;;;;3.40;2.23;;;22.30;84.20;;;;;;4924251;28;20027;-79
2022/08/05 02:51:01;;;;;;;4.20;2.13;;;22.30;84.30;;;;;;4957342;28;20089;-79
2022/08/05 02:53:31;;;;;;;4.68;2.30;;;22.30;84.20;;;;;;4960514;28;20034;-79
2022/08/05 02:55:57;;;;;;;3.88;2.28;;;22.40;84.20;;;;;;4952960;28;20027;-79
2022/08/05 02:58:24;;;;;;;4.35;2.10;;;22.30;84.40;;;;;;4958697;28;20019;-79
2022/08/05 03:00:54;;;;;;;3.10;2.03;;;22.40;84.40;;;;;;4951379;28;20043;-79
2022/08/05 03:03:20;;;;;;;4.43;2.08;;;22.30;84.30;;;;;;4941039;28;20035;-79
2022/08/05 03:05:48;;;;;;;3.50;2.13;;;22.40;84.40;;;;;;4963691;28;20041;-79
2022/08/05 03:08:16;;;;;;;3.97;2.13;;;22.40;84.40;;;;;;4934857;28;20025;-79
2022/08/05 03:10:45;;;;;;;3.97;2.38;;;22.30;84.40;;;;;;4936320;28;20292;-80
2022/08/05 03:13:15;;;;;;;3.20;2.20;;;22.30;84.30;;;;;;4952998;28;20039;-79
2022/08/05 03:15:45;;;;;;;4.75;2.40;;;22.30;84.40;;;;;;4970972;28;20035;-79
2022/08/05 03:18:11;;;;;;;3.58;2.20;;;22.30;84.20;;;;;;4936446;28;20181;-79
2022/08/05 03:20:38;;;;;;;3.83;2.22;;;22.30;84.40;;;;;;4950230;28;20583;-79
2022/08/05 03:23:09;;;;;;;4.32;2.40;;;22.30;84.40;;;;;;4957676;28;20427;-79
2022/08/05 03:25:36;;;;;;;3.80;2.50;;;22.30;84.10;;;;;;4954140;28;20496;-79
2022/08/05 03:28:03;;;;;;;4.25;2.50;;;22.30;84.50;;;;;;4955360;28;20500;-79
2022/08/05 03:30:31;;;;;;;5.63;2.65;;;22.30;84.50;;;;;;4962339;28;20031;-79
2022/08/05 03:33:02;;;;;;;4.53;2.30;;;22.20;84.30;;;;;;4956084;28;20733;-79
2022/08/05 03:35:29;;;;;;;6.35;2.38;;;22.20;83.90;;;;;;4950685;28;21071;-79
2022/08/05 03:37:56;;;;;;;6.37;2.40;;;22.20;84.20;;;;;;4961170;28;20101;-79
2022/08/05 03:40:22;;;;;;;3.85;2.47;;;22.20;84.20;;;;;;4964734;28;21119;-79
2022/08/05 03:42:48;;;;;;;4.45;2.33;;;22.10;84.20;;;;;;4959787;28;20104;-79
2022/08/05 03:45:14;;;;;;;4.75;2.15;;;22.10;84.30;;;;;;4953460;28;20027;-79
2022/08/05 03:47:39;;;;;;;4.13;2.40;;;22.10;84.40;;;;;;4936942;28;20054;-80
2022/08/05 03:50:05;;;;;;;4.30;2.10;;;22.10;84.50;;;;;;4940060;28;20034;-79
2022/08/05 03:52:36;;;;;;;4.07;2.33;;;22.10;84.50;;;;;;4959453;28;20066;-79
2022/08/05 03:55:09;;;;;;;4.32;2.45;;;22.10;84.50;;;;;;4927610;28;20027;-79
2022/08/05 03:57:37;;;;;;;4.40;2.42;;;22.10;84.40;;;;;;4946061;28;20054;-79
2022/08/05 04:00:08;;;;;;;6.47;2.70;;;22.10;84.30;;;;;;4959525;28;20023;-80
2022/08/05 04:02:36;;;;;;;5.53;2.30;;;22.00;84.00;;;;;;4945125;28;20041;-80
2022/08/05 04:05:04;;;;;;;4.70;2.65;;;22.00;84.30;;;;;;4957181;28;20365;-79
2022/08/05 04:07:32;;;;;;;3.53;2.03;;;21.90;84.50;;;;;;4938325;28;20034;-79
2022/08/05 04:09:58;;;;;;;4.10;2.50;;;21.90;84.50;;;;;;4950272;28;20026;-80
2022/08/05 04:12:24;;;;;;;4.10;2.15;;;21.90;84.60;;;;;;4951813;28;20248;-80
2022/08/05 04:14:51;;;;;;;3.80;2.23;;;21.90;84.60;;;;;;4944326;28;20026;-80
2022/08/05 04:17:16;;;;;;;5.15;2.38;;;21.90;84.60;;;;;;4934688;28;20045;-80
2022/08/05 04:19:44;;;;;;;5.63;2.17;;;21.90;84.60;;;;;;4957059;28;20420;-80
2022/08/05 04:22:10;;;;;;;3.38;2.30;;;21.90;84.80;;;;;;4938772;28;20120;-79
2022/08/05 04:24:44;;;;;;;4.50;2.43;;;21.80;84.60;;;;;;4959257;28;20049;-80
2022/08/05 04:27:10;;;;;;;4.07;2.30;;;21.80;84.10;;;;;;4952540;28;20023;-80
2022/08/05 04:29:36;;;;;;;3.95;2.08;;;21.80;84.50;;;;;;4940285;28;20053;-79
2022/08/05 04:32:02;;;;;;;3.65;1.98;;;21.80;84.40;;;;;;4950166;28;20479;-80
2022/08/05 04:34:28;;;;;;;5.78;2.33;;;21.80;84.40;;;;;;4949587;28;20022;-79
2022/08/05 04:36:53;;;;;;;3.47;2.00;;;21.70;84.30;;;;;;4921974;28;20027;-80
2022/08/05 04:39:20;;;;;;;5.93;2.30;;;21.70;84.40;;;;;;4959812;28;20112;-79
2022/08/05 04:41:46;;;;;;;3.25;1.92;;;21.60;84.30;;;;;;4955087;28;20479;-80
2022/08/05 04:44:13;;;;;;;5.22;2.20;;;21.60;85.10;;;;;;4948340;28;20244;-79
2022/08/05 04:46:38;;;;;;;3.90;2.10;;;21.60;85.20;;;;;;4962217;28;20038;-79
2022/08/05 04:49:06;;;;;;;5.77;2.37;;;21.60;84.50;;;;;;4947413;28;20326;-79
2022/08/05 04:51:31;;;;;;;3.10;1.88;;;21.60;84.50;;;;;;4952001;28;20344;-80
2022/08/05 04:54:00;;;;;;;3.10;1.92;;;21.50;84.60;;;;;;4920679;28;20039;-80
2022/08/05 04:56:26;;;;;;;4.33;2.07;;;21.50;84.40;;;;;;4939112;28;20027;-79
2022/08/05 04:58:51;;;;;;;5.25;2.13;;;21.50;84.70;;;;;;4953375;28;20034;-79
2022/08/05 05:01:17;;;;;;;4.53;2.20;;;21.50;84.90;;;;;;4938602;28;20034;-80
2022/08/05 05:03:43;;;;;;;3.37;2.27;;;21.40;85.00;;;;;;4911393;28;20034;-80
2022/08/05 05:06:12;;;;;;;4.38;2.13;;;21.40;85.20;;;;;;4946119;28;20046;-80
2022/08/05 05:08:39;;;;;;;4.10;2.20;;;21.40;85.20;;;;;;4933937;28;20041;-80
2022/08/05 05:11:05;;;;;;;5.82;2.00;;;21.40;85.40;;;;;;4957785;28;20206;-80
2022/08/05 05:13:31;;;;;;;4.45;2.28;;;21.40;85.60;;;;;;4956587;28;20100;-80
2022/08/05 05:15:57;;;;;;;3.90;2.22;;;21.40;85.70;;;;;;4950963;28;20272;-80
2022/08/05 05:18:23;;;;;;;4.13;2.08;;;21.40;85.70;;;;;;4965838;28;20041;-80
2022/08/05 05:20:49;;;;;;;2.63;1.90;;;21.40;85.90;;;;;;4935901;28;20030;-79
2022/08/05 05:23:15;;;;;;;3.05;2.20;;;21.40;85.90;;;;;;4944030;28;20409;-80
2022/08/05 05:25:42;;;;;;;3.47;2.10;;;21.40;86.00;;;;;;4919409;28;20452;-80
2022/08/05 05:28:09;;;;;;;4.60;2.20;;;21.40;85.90;;;;;;4960635;28;20030;-80
2022/08/05 05:30:36;;;;;;;4.30;2.23;;;21.40;86.10;;;;;;4952004;28;20023;-79
2022/08/05 05:33:03;;;;;;;5.63;2.22;;;21.50;86.20;;;;;;4965160;28;20220;-80
2022/08/05 05:35:32;;;;;;;4.80;2.40;;;21.50;86.20;;;;;;4952378;28;20026;-80
2022/08/05 05:38:01;;;;;;;5.63;2.50;;;21.50;86.10;;;;;;4936811;28;20612;-80
2022/08/05 05:40:28;;;;;;;5.38;2.40;;;21.50;86.40;;;;;;4936690;28;20082;-80
2022/08/05 05:42:54;;;;;;;4.33;2.20;;;21.60;86.70;;;;;;4959612;28;20478;-79
2022/08/05 05:45:20;;;;;;;4.47;2.50;;;21.60;86.90;;;;;;4955029;28;20082;-80
2022/08/05 05:47:47;;;;;;;3.72;2.08;;;21.60;87.00;;;;;;4930806;28;20494;-79
2022/08/05 05:50:17;;;;;;;4.05;2.13;;;21.70;87.10;;;;;;4945936;28;20062;-79
2022/08/05 05:52:44;;;;;;;3.73;2.20;;;21.70;86.80;;;;;;4948360;28;20093;-80
2022/08/05 05:55:11;;;;;;;6.03;2.58;;;21.70;87.10;;;;;;4959077;28;20122;-80
2022/08/05 05:57:39;;;;;;;4.50;2.38;;;21.70;87.10;;;;;;4929223;28;20102;-79
2022/08/05 06:00:10;;;;;;;5.45;2.30;;;21.80;87.10;;;;;;4949172;28;20057;-80
2022/08/05 06:02:36;;;;;;;4.22;2.20;;;21.80;86.90;;;;;;4945847;28;20024;-80
2022/08/05 06:05:02;;;;;;;4.97;2.17;;;21.80;86.90;;;;;;4945118;28;20225;-80
2022/08/05 06:07:28;;;;;;;4.40;2.40;;;21.80;86.80;;;;;;4949863;28;20066;-80
2022/08/05 06:09:54;;;;;;;6.70;2.30;;;21.80;86.90;;;;;;4951170;28;20058;-80
2022/08/05 06:12:19;;;;;;;3.58;2.20;;;21.90;87.10;;;;;;4937249;28;20066;-80
2022/08/05 06:14:45;;;;;;;4.63;2.20;;;21.90;87.00;;;;;;4962665;28;20228;-80
2022/08/05 06:17:11;;;;;;;6.10;2.40;;;21.90;87.10;;;;;;4947739;28;20078;-80
2022/08/05 06:19:37;;;;;;;3.95;2.30;;;21.90;87.20;;;;;;4938998;28;20041;-80
2022/08/05 06:22:04;;;;;;;4.07;2.20;;;22.00;87.60;;;;;;4945871;28;20031;-80
2022/08/05 06:24:30;;;;;;;4.45;2.38;;;22.00;87.70;;;;;;4960786;28;20047;-80
2022/08/05 06:26:56;;;;;;;5.38;2.47;;;22.10;88.00;;;;;;4929699;28;20661;-80
2022/08/05 06:29:24;;;;;;;4.05;2.30;;;22.10;88.30;;;;;;4955712;28;20019;-80
2022/08/05 06:31:49;;;;;;;4.20;2.20;;;22.20;88.40;;;;;;4914970;28;20042;-80
2022/08/05 06:34:15;;;;;;;4.68;2.60;;;22.30;88.60;;;;;;4944925;28;20487;-80
2022/08/05 06:36:41;;;;;;;4.60;2.58;;;22.40;88.50;;;;;;4963160;28;20022;-80
2022/08/05 06:39:07;;;;;;;4.87;2.60;;;22.40;88.20;;;;;;4928547;28;20510;-80
2022/08/05 06:41:32;;;;;;;4.25;2.55;;;22.50;88.10;;;;;;4952994;28;20051;-80
2022/08/05 06:43:58;;;;;;;6.30;2.50;;;22.50;87.90;;;;;;4938384;28;20023;-80
2022/08/05 06:46:24;;;;;;;4.05;2.35;;;22.60;87.70;;;;;;4940511;28;20035;-80
2022/08/05 06:48:49;;;;;;;3.33;2.17;;;22.60;87.50;;;;;;4955732;28;20037;-80
2022/08/05 06:51:15;;;;;;;4.07;2.35;;;22.60;87.70;;;;;;4925289;28;20304;-80
2022/08/05 06:53:41;;;;;;;3.50;2.37;;;22.70;87.70;;;;;;4949931;28;20019;-80
2022/08/05 06:56:07;;;;;;;4.05;2.38;;;22.60;87.70;;;;;;4954517;28;20050;-80
2022/08/05 06:58:33;;;;;;;4.07;2.43;;;22.70;87.80;;;;;;4928786;28;20058;-80
2022/08/05 07:01:00;;;;;;;3.85;2.10;;;22.70;87.60;;;;;;4948859;28;20039;-80
2022/08/05 07:03:27;;;;;;;5.30;2.47;;;22.70;87.70;;;;;;4936778;28;20243;-80
2022/08/05 07:05:53;;;;;;;4.85;2.20;;;22.80;88.10;;;;;;4927069;28;20118;-80
2022/08/05 07:08:21;;;;;;;4.85;2.15;;;22.80;88.20;;;;;;4935413;28;20849;-80
2022/08/05 07:10:47;;;;;;;4.40;2.30;;;22.90;88.50;;;;;;4953262;28;20037;-80
2022/08/05 07:18:42;;;;;;;4.25;2.40;;;23.10;88.70;;;;;;4946708;28;20383;-80
2022/08/05 07:21:07;;;;;;;3.33;1.97;;;23.10;88.90;;;;;;4945511;28;20050;-79
2022/08/05 07:23:33;;;;;;;4.32;2.05;;;23.20;89.00;;;;;;4933287;28;20117;-80
2022/08/05 07:25:59;;;;;;;3.97;2.13;;;23.30;89.00;;;;;;4949226;28;20042;-80
2022/08/05 07:28:26;;;;;;;4.07;2.20;;;23.40;88.90;;;;;;4923865;28;20458;-80
2022/08/05 07:30:52;;;;;;;4.75;2.30;;;23.40;89.30;;;;;;4936638;28;20023;-80
2022/08/05 07:33:20;;;;;;;3.03;2.05;;;23.50;88.60;;;;;;4943160;28;20145;-80
2022/08/05 07:35:46;;;;;;;3.13;2.17;;;23.60;88.60;;;;;;4938660;28;20105;-79
2022/08/05 07:38:16;;;;;;;2.95;1.90;;;23.70;88.40;;;;;;4948698;28;20121;-79
2022/08/05 07:40:42;;;;;;;3.72;2.20;;;23.70;88.30;;;;;;4919801;28;20054;-79
2022/08/05 07:43:10;;;;;;;4.30;1.98;;;23.80;88.30;;;;;;4925599;28;20030;-80
2022/08/05 07:45:36;;;;;;;3.00;1.77;;;23.80;87.70;;;;;;4942244;28;20614;-80
2022/08/05 07:48:02;;;;;;;3.90;2.17;;;23.90;88.10;;;;;;4949083;28;20412;-79
2022/08/05 07:50:28;;;;;;;4.55;1.90;;;23.90;88.10;;;;;;4919650;28;20073;-80
2022/08/05 07:52:54;;;;;;;3.37;1.90;;;24.10;88.20;;;;;;4946389;28;20118;-80
2022/08/05 07:55:20;;;;;;;2.50;1.88;;;24.10;88.40;;;;;;4937080;28;20476;-79
2022/08/05 07:57:46;;;;;;;3.05;1.70;;;24.20;88.70;;;;;;4942383;28;20073;-80
2022/08/05 08:00:13;;;;;;;3.63;1.77;;;24.30;88.60;;;;;;4927292;28;20024;-80
2022/08/05 08:02:39;;;;;;;2.67;1.70;;;24.50;89.10;;;;;;4951260;28;20026;-80
2022/08/05 08:05:05;;;;;;;4.28;1.70;;;24.60;90.00;;;;;;4937528;28;20059;-80
2022/08/05 08:07:32;;;;;;;2.45;1.80;;;24.80;89.90;;;;;;4963783;28;20031;-80
2022/08/05 08:09:57;;;;;;;2.70;1.70;;;25.00;90.30;;;;;;4929178;28;20081;-80
2022/08/05 08:12:23;;;;;;;2.60;1.70;;;25.30;90.50;;;;;;4954029;28;20030;-80
2022/08/05 08:14:49;;;;;;;2.20;1.40;;;25.50;90.80;;;;;;4944568;28;20034;-80
2022/08/05 08:17:15;;;;;;;2.07;1.30;;;25.90;91.30;;;;;;4943902;28;20055;-80
2022/08/05 08:19:42;;;;;;;2.53;1.20;;;26.10;91.30;;;;;;4961875;28;20061;-79
2022/08/05 08:22:10;;;;;;;1.67;1.40;;;26.50;91.10;;;;;;4935625;28;20769;-80
2022/08/05 08:24:36;;;;;;;3.70;1.63;;;26.90;91.60;;;;;;4940814;28;20042;-80
2022/08/05 08:27:03;;;;;;;2.72;1.80;;;27.30;92.50;;;;;;4945086;28;20023;-81
2022/08/05 08:29:29;;;;;;;2.47;1.65;;;27.80;92.50;;;;;;4951614;28;20023;-80
2022/08/05 08:31:54;;;;;;;3.55;1.60;;;28.10;91.40;;;;;;4938361;28;20102;-80
2022/08/05 08:34:23;;;;;;;2.70;1.60;;;28.40;89.90;;;;;;4938776;28;20432;-80
2022/08/05 08:36:49;;;;;;;2.30;1.60;;;28.50;86.00;;;;;;4946249;28;20019;-80
2022/08/05 08:39:18;;;;;;;3.85;1.50;;;28.50;84.70;;;;;;4922548;28;20487;-80
2022/08/05 08:41:47;;;;;;;2.22;1.60;;;28.40;83.20;;;;;;4942445;28;20304;-80
2022/08/05 08:44:15;;;;;;;3.00;1.30;;;28.20;81.00;;;;;;4958819;28;20038;-81
2022/08/05 08:46:43;;;;;;;2.22;1.20;;;28.10;84.70;;;;;;4918521;28;21143;-80
2022/08/05 08:49:13;;;;;;;2.28;1.50;;;28.20;87.90;;;;;;4959573;28;20404;-79
2022/08/05 08:51:40;;;;;;;2.05;1.50;;;28.50;89.60;;;;;;4950559;28;21084;-79
2022/08/05 08:54:06;;;;;;;1.67;1.30;;;28.80;89.60;;;;;;4963220;28;20659;-80
2022/08/05 08:56:32;;;;;;;1.40;1.20;;;29.00;88.30;;;;;;4948344;28;20501;-81
2022/08/05 08:58:59;;;;;;;1.80;1.33;;;29.20;85.80;;;;;;4948525;28;20623;-80
2022/08/05 09:01:25;;;;;;;1.63;1.10;;;29.30;84.10;;;;;;4957631;28;20484;-80
2022/08/05 09:03:54;;;;;;;1.65;1.23;;;29.40;86.50;;;;;;4918389;28;20109;-80
2022/08/05 09:06:21;;;;;;;2.03;1.10;;;29.60;86.50;;;;;;4952635;28;20086;-80
2022/08/05 09:08:47;;;;;;;2.10;1.20;;;30.00;89.50;;;;;;4942157;28;20223;-80
2022/08/05 09:11:13;;;;;;;1.38;1.10;;;30.40;90.40;;;;;;4938015;28;20062;-80
2022/08/05 09:13:41;;;;;;;1.50;1.33;;;30.80;90.30;;;;;;4942351;28;20034;-80
2022/08/05 09:16:10;;;;;;;1.77;1.07;;;31.30;89.40;;;;;;4959851;28;20031;-81
2022/08/05 09:18:36;;;;;;;1.83;1.30;;;31.80;89.50;;;;;;4936004;28;20073;-80
2022/08/05 09:21:02;;;;;;;1.48;1.25;;;32.20;89.20;;;;;;4953408;28;20030;-80
2022/08/05 09:23:28;;;;;;;1.48;1.30;;;32.70;88.80;;;;;;4949405;28;20269;-80
2022/08/05 09:26:18;;;;;;;1.40;1.23;;;33.00;84.50;;;;;;4950762;28;20083;-80
2022/08/05 09:28:46;;;;;;;1.65;1.27;;;33.30;73.40;;;;;;4922256;28;20039;-81
2022/08/05 09:31:14;;;;;;;1.65;1.23;;;33.40;80.60;;;;;;4957238;28;20026;-81
2022/08/05 09:33:48;;;;;;;2.50;1.50;;;33.60;79.40;;;;;;4914653;28;20035;-81
2022/08/05 09:36:13;;;;;;;2.13;1.10;;;33.70;76.30;;;;;;4945000;28;20071;-81
2022/08/05 09:39:01;;;;;;;2.03;1.70;;;33.80;80.50;;;;;;4959293;28;20019;-81
2022/08/05 09:41:27;;;;;;;2.05;1.40;;;33.90;75.50;;;;;;4957251;28;20022;-81
2022/08/05 09:43:53;;;;;;;2.53;1.30;;;34.10;80.70;;;;;;4941598;28;20031;-80
2022/08/05 09:46:27;;;;;;;1.75;1.17;;;34.30;79.60;;;;;;4962948;28;20038;-81
2022/08/05 09:48:54;;;;;;;1.95;1.30;;;34.50;74.00;;;;;;4932510;28;20073;-81
2022/08/05 09:51:40;;;;;;;1.75;1.20;;;34.40;74.60;;;;;;4936340;28;20123;-81
2022/08/05 09:54:07;;;;;;;1.35;1.00;;;34.30;67.30;;;;;;4941843;28;20705;-80
2022/08/05 09:56:37;;;;;;;1.37;1.10;;;34.00;71.00;;;;;;4949317;28;20016;-79
2022/08/05 09:59:09;;;;;;;1.10;1.00;;;33.70;67.40;;;;;;4936641;28;20316;-80
2022/08/05 10:01:39;;;;;;;1.30;1.20;;;33.40;69.40;;;;;;4954704;28;20057;-80
2022/08/05 10:04:11;;;;;;;2.15;1.00;;;33.10;69.50;;;;;;4921442;28;21255;-80
2022/08/05 10:06:39;;;;;;;2.47;1.30;;;32.90;68.60;;;;;;4957865;28;20075;-81
2022/08/05 10:09:20;;;;;;;2.70;1.00;;;32.70;68.70;;;;;;4932412;28;20121;-81
2022/08/05 10:11:46;;;;;;;1.27;1.00;;;32.40;63.90;;;;;;4965118;28;20035;-81
2022/08/05 10:14:30;;;;;;;1.27;1.17;;;32.00;67.30;;;;;;4938409;28;20405;-80
2022/08/05 10:17:14;;;;;;;1.15;1.02;;;31.70;63.00;;;;;;4957470;28;20363;-80
2022/08/05 10:19:41;;;;;;;1.10;0.95;;;31.20;63.10;;;;;;4962994;28;20054;-81
2022/08/05 10:22:07;;;;;;;2.17;1.40;;;30.90;66.70;;;;;;4931246;28;20138;-80
2022/08/05 10:24:34;;;;;;;1.35;1.00;;;30.70;67.60;;;;;;4946837;28;20115;-81
2022/08/05 10:27:00;;;;;;;1.25;1.05;;;30.40;68.50;;;;;;4937076;28;20042;-80
2022/08/05 10:29:28;;;;;;;1.40;1.20;;;30.30;71.00;;;;;;4929434;28;20598;-81
2022/08/05 10:31:55;;;;;;;1.00;0.90;;;30.50;74.00;;;;;;4955653;28;20031;-81
2022/08/05 10:34:21;;;;;;;1.37;1.27;;;30.90;76.70;;;;;;4947451;28;20027;-81
2022/08/05 10:36:48;;;;;;;1.98;1.40;;;31.40;78.30;;;;;;4929561;28;20034;-80
2022/08/05 10:39:17;;;;;;;1.90;1.20;;;31.80;78.60;;;;;;4938057;28;20433;-80
2022/08/05 10:41:59;;;;;;;1.83;1.10;;;32.40;75.80;;;;;;4940360;28;20054;-80
2022/08/05 10:44:26;;;;;;;1.20;1.10;;;32.80;69.50;;;;;;4950186;28;20038;-80
2022/08/05 10:46:54;;;;;;;1.17;1.10;;;33.00;73.10;;;;;;4948596;28;20463;-82
2022/08/05 10:49:22;;;;;;;1.38;1.27;;;33.10;72.00;;;;;;4958962;28;20215;-80
2022/08/05 10:51:59;;;;;;;1.35;1.20;;;33.30;71.80;;;;;;4938610;28;20054;-82
2022/08/05 10:55:02;;;;;;;1.30;1.20;;;33.40;68.10;;;;;;4961610;28;20260;-81
2022/08/05 10:57:28;;;;;;;1.30;1.10;;;33.40;63.50;;;;;;4977151;28;20268;-79
2022/08/05 11:00:21;;;;;;;1.70;1.00;;;33.40;69.60;;;;;;4932871;28;20129;-79
2022/08/05 11:03:05;;;;;;;1.40;1.30;;;33.40;62.60;;;;;;4951728;28;20077;-81
2022/08/05 11:05:35;;;;;;;1.20;1.08;;;33.40;62.10;;;;;;4958293;28;20448;-81
2022/08/05 11:08:06;;;;;;;1.30;1.20;;;33.40;65.70;;;;;;4922522;28;20031;-80
2022/08/05 11:10:35;;;;;;;1.52;1.10;;;33.40;67.00;;;;;;4965396;28;20034;-80
2022/08/05 11:13:02;;;;;;;1.20;1.10;;;33.60;68.70;;;;;;4961548;28;20023;-79
2022/08/05 11:15:42;;;;;;;1.17;1.08;;;33.50;67.10;;;;;;4955126;28;20046;-81
2022/08/05 11:18:28;;;;;;;1.20;1.10;;;33.40;60.90;;;;;;4954484;28;20014;-80
2022/08/05 11:20:54;;;;;;;1.75;1.20;;;33.40;61.20;;;;;;4972694;28;20176;-80
2022/08/05 11:23:51;;;;;;;1.45;1.00;;;33.50;68.70;;;;;;4943320;28;20061;-80
2022/08/05 11:26:20;;;;;;;1.17;1.00;;;33.70;60.90;;;;;;4958062;28;20611;-80
2022/08/05 11:28:55;;;;;;;1.05;0.80;;;33.70;67.70;;;;;;4958578;28;20034;-81
2022/08/05 11:31:30;;;;;;;1.45;1.20;;;33.70;61.40;;;;;;4952229;28;20027;-79
2022/08/05 11:34:04;;;;;;;1.35;1.00;;;33.70;66.50;;;;;;4938093;28;20428;-79
2022/08/05 11:36:50;;;;;;;2.05;1.20;;;33.70;65.70;;;;;;4953814;28;20106;-80
2022/08/05 11:39:46;;;;;;;1.30;1.20;;;33.70;59.10;;;;;;4936139;28;20027;-81
2022/08/05 11:42:13;;;;;;;1.02;1.00;;;33.70;59.90;;;;;;4942794;28;20752;-81
2022/08/05 11:44:39;;;;;;;2.05;1.17;;;33.50;63.70;;;;;;4962207;28;20106;-81
2022/08/05 11:47:05;;;;;;;1.95;0.70;;;33.30;61.80;;;;;;4924116;28;20495;-81
2022/08/05 11:49:32;;;;;;;1.85;0.90;;;33.00;61.30;;;;;;4934929;28;20207;-79
2022/08/05 11:51:58;;;;;;;1.13;1.00;;;32.60;61.10;;;;;;4964972;28;20034;-81
2022/08/05 11:54:26;;;;;;;0.80;0.80;;;32.20;60.60;;;;;;4926886;28;20037;-80
2022/08/05 11:56:54;;;;;;;0.98;0.80;;;32.00;61.30;;;;;;4935156;28;20031;-79
2022/08/05 11:59:24;;;;;;;0.82;0.80;;;31.70;61.40;;;;;;4956778;28;20039;-80
2022/08/05 12:02:01;;;;;;;2.30;0.80;;;31.50;61.90;;;;;;4944819;28;20445;-80
2022/08/05 12:04:38;;;;;;;1.08;0.98;;;31.40;60.40;;;;;;4951535;28;20035;-79
2022/08/05 12:07:06;;;;;;;0.95;0.90;;;31.30;62.00;;;;;;4943395;28;20149;-81
2022/08/05 12:09:56;;;;;;;1.00;0.90;;;31.20;63.00;;;;;;4945884;28;20443;-79
2022/08/05 12:12:29;;;;;;;1.48;0.90;;;31.20;62.40;;;;;;4954473;28;20037;-81
2022/08/05 12:14:55;;;;;;;0.90;0.83;;;31.30;63.10;;;;;;4945366;28;20538;-80
2022/08/05 12:17:22;;;;;;;1.27;1.00;;;31.30;64.60;;;;;;4941238;28;20023;-80
2022/08/05 12:19:47;;;;;;;0.90;0.90;;;31.50;66.90;;;;;;4944644;28;20534;-79
2022/08/05 12:22:15;;;;;;;1.20;0.93;;;31.80;68.70;;;;;;4944414;28;20061;-80
2022/08/05 12:24:47;;;;;;;1.70;0.95;;;32.10;68.30;;;;;;4912971;28;20054;-80
2022/08/05 12:27:41;;;;;;;1.00;0.90;;;32.40;65.40;;;;;;4945727;28;20278;-80
2022/08/05 12:30:10;;;;;;;1.88;1.23;;;32.70;62.60;;;;;;4953197;28;20031;-80
2022/08/05 12:32:49;;;;;;;2.25;1.00;;;32.90;65.10;;;;;;4963132;28;20039;-79
2022/08/05 12:35:15;;;;;;;2.00;0.80;;;33.00;59.90;;;;;;4948036;28;20480;-79
2022/08/05 12:37:42;;;;;;;1.08;0.90;;;33.10;65.60;;;;;;4960267;28;20140;-80
2022/08/05 12:40:09;;;;;;;1.08;0.80;;;33.20;64.00;;;;;;4926923;28;20059;-80
2022/08/05 12:42:35;;;;;;;1.50;0.70;;;33.20;63.10;;;;;;4961653;28;20198;-79
2022/08/05 12:45:06;;;;;;;1.75;1.10;;;33.30;64.70;;;;;;4960597;28;20023;-79
2022/08/05 12:47:33;;;;;;;1.07;0.80;;;33.40;60.80;;;;;;4937399;28;20058;-80
2022/08/05 12:49:59;;;;;;;1.08;0.95;;;33.50;62.50;;;;;;4950596;28;20030;-80
2022/08/05 12:52:26;;;;;;;2.67;0.80;;;33.40;60.40;;;;;;4958199;28;20038;-79
2022/08/05 12:54:52;;;;;;;1.10;0.68;;;33.20;60.00;;;;;;4928546;28;20022;-79
2022/08/05 12:57:18;;;;;;;0.97;0.80;;;33.10;59.70;;;;;;4932122;28;20041;-82
2022/08/05 12:59:54;;;;;;;2.17;0.80;;;33.00;60.20;;;;;;4935465;28;20062;-81
2022/08/05 13:02:24;;;;;;;1.52;0.73;;;33.00;57.90;;;;;;4936739;28;20349;-78